Time;durP1;ratioP1;P1;durP2;ratioP2;P2;SDS_P1;SDS_P2;PMS_P1;PMS_P2;Temp;Humidity;BMP_temperature;BMP_pressure;BME280_temperature;BME280_humidity;BME280_pressure;Samples;Min_cycle;Max_cycle;Signal;HPM_P1;HPM_P2
2023/11/07 05:02:16;;;;;;;6.80;4.00;;;9.90;99.90;;;;;;5020887;23;20246;-71
2023/11/07 05:04:45;;;;;;;3.67;2.80;;;9.90;99.90;;;;;;4864752;29;20460;-71
2023/11/07 05:07:12;;;;;;;5.05;4.55;;;9.90;99.90;;;;;;4869331;29;20237;-72
2023/11/07 05:09:39;;;;;;;3.80;3.50;;;9.90;99.90;;;;;;4863535;29;20237;-71
2023/11/07 05:12:06;;;;;;;3.55;3.25;;;9.90;99.90;;;;;;4860980;29;20230;-71
2023/11/07 05:14:33;;;;;;;4.00;3.53;;;9.90;99.90;;;;;;4873996;23;20242;-70
2023/11/07 05:17:00;;;;;;;3.65;3.40;;;9.90;99.90;;;;;;4849467;29;20591;-71
2023/11/07 05:19:28;;;;;;;4.90;4.40;;;9.90;99.90;;;;;;4857094;29;20221;-70
2023/11/07 05:21:55;;;;;;;3.38;3.17;;;9.80;99.90;;;;;;4855443;29;20222;-71
2023/11/07 05:24:23;;;;;;;5.32;3.15;;;9.80;99.90;;;;;;4855273;29;20498;-70
2023/11/07 05:26:49;;;;;;;4.35;3.92;;;9.80;99.90;;;;;;4849784;29;20587;-70
2023/11/07 05:29:16;;;;;;;4.95;3.60;;;9.80;99.90;;;;;;4857124;29;20255;-71
2023/11/07 05:31:43;;;;;;;3.83;3.53;;;9.80;99.90;;;;;;4856001;29;20268;-70
2023/11/07 05:34:10;;;;;;;3.85;3.60;;;9.80;99.90;;;;;;4856159;29;20326;-70
2023/11/07 05:36:38;;;;;;;5.15;3.15;;;9.80;99.90;;;;;;4856522;29;20230;-71
2023/11/07 05:39:05;;;;;;;3.13;2.92;;;9.80;99.90;;;;;;4845247;29;20209;-71
2023/11/07 05:41:32;;;;;;;3.50;3.20;;;9.80;99.90;;;;;;4852708;29;20663;-71
2023/11/07 05:43:59;;;;;;;3.63;3.33;;;9.80;99.90;;;;;;4856555;29;20237;-71
2023/11/07 05:46:27;;;;;;;3.28;3.17;;;9.80;99.90;;;;;;4856726;29;20271;-71
2023/11/07 05:48:53;;;;;;;3.47;3.10;;;9.80;99.90;;;;;;4857551;29;20245;-70
2023/11/07 05:51:23;;;;;;;4.18;3.88;;;9.80;99.90;;;;;;4851391;29;20244;-71
2023/11/07 05:53:51;;;;;;;4.35;3.20;;;9.80;99.90;;;;;;4854621;29;20948;-72
2023/11/07 05:56:18;;;;;;;3.60;3.05;;;9.80;99.90;;;;;;4855390;29;20212;-71
2023/11/07 05:58:44;;;;;;;3.38;3.08;;;9.80;99.90;;;;;;4854023;29;20234;-72
2023/11/07 06:01:11;;;;;;;4.82;3.65;;;9.80;99.90;;;;;;4853947;29;20213;-72
2023/11/07 06:03:38;;;;;;;4.35;3.60;;;9.90;99.90;;;;;;4855789;29;20464;-71
2023/11/07 06:06:05;;;;;;;3.30;3.00;;;9.90;99.90;;;;;;4856266;29;20214;-72
2023/11/07 06:08:31;;;;;;;4.57;3.65;;;9.90;99.90;;;;;;4855554;29;20215;-71
2023/11/07 06:10:59;;;;;;;5.57;4.13;;;9.90;99.90;;;;;;4854165;29;20238;-71
2023/11/07 06:13:26;;;;;;;4.97;3.60;;;9.90;99.90;;;;;;4858944;29;20565;-71
2023/11/07 06:15:53;;;;;;;3.30;3.10;;;9.90;99.90;;;;;;4858215;29;20241;-71
2023/11/07 06:18:21;;;;;;;6.43;3.78;;;9.90;99.90;;;;;;4856780;29;20281;-71
2023/11/07 06:20:48;;;;;;;4.68;3.35;;;9.90;99.90;;;;;;4859938;29;20266;-71
2023/11/07 06:23:15;;;;;;;5.47;3.72;;;9.90;99.90;;;;;;4855422;29;20658;-72
2023/11/07 06:25:42;;;;;;;6.13;4.30;;;9.90;99.90;;;;;;4858612;29;20238;-72
2023/11/07 06:28:10;;;;;;;6.45;4.03;;;9.90;99.90;;;;;;4857108;29;20211;-72
2023/11/07 06:30:37;;;;;;;8.18;3.97;;;10.00;99.90;;;;;;4856895;29;20229;-71
2023/11/07 06:33:04;;;;;;;7.72;3.47;;;10.00;99.90;;;;;;4857150;29;20302;-72
2023/11/07 06:35:31;;;;;;;3.78;3.47;;;10.00;99.90;;;;;;4856638;29;20231;-72
2023/11/07 06:37:59;;;;;;;5.45;4.95;;;10.00;99.90;;;;;;4858369;29;20277;-72
2023/11/07 06:40:25;;;;;;;4.53;4.15;;;10.00;99.90;;;;;;4858569;29;20214;-72
2023/11/07 06:42:52;;;;;;;4.50;4.10;;;10.00;99.90;;;;;;4857841;29;20215;-72
2023/11/07 06:45:20;;;;;;;4.90;4.50;;;10.00;99.90;;;;;;4858756;29;20675;-72
2023/11/07 06:47:48;;;;;;;15.02;5.78;;;10.00;99.90;;;;;;4858363;29;20221;-72
2023/11/07 06:50:15;;;;;;;5.40;4.40;;;10.00;99.90;;;;;;4855532;29;20229;-71
2023/11/07 06:52:48;;;;;;;6.25;3.60;;;10.10;99.90;;;;;;4858024;29;20229;-72
2023/11/07 06:55:15;;;;;;;7.03;3.85;;;10.10;99.90;;;;;;4856484;29;20234;-71
2023/11/07 06:57:43;;;;;;;3.10;3.00;;;10.10;99.90;;;;;;4856926;29;20305;-71
2023/11/07 07:00:11;;;;;;;3.65;3.55;;;10.10;99.90;;;;;;4852905;29;20216;-71
2023/11/07 07:02:40;;;;;;;3.55;3.28;;;10.10;99.90;;;;;;4852013;29;20232;-73
2023/11/07 07:05:12;;;;;;;3.75;3.30;;;10.10;99.90;;;;;;4858494;29;20230;-72
2023/11/07 07:07:40;;;;;;;6.13;3.50;;;10.20;99.90;;;;;;4858392;29;20590;-71
2023/11/07 07:10:09;;;;;;;3.40;3.20;;;10.20;99.90;;;;;;4856731;29;20241;-72
2023/11/07 07:12:36;;;;;;;3.70;3.50;;;10.20;99.90;;;;;;4857827;29;20212;-72
2023/11/07 07:15:03;;;;;;;11.85;4.65;;;10.20;99.90;;;;;;4850191;29;20247;-72
2023/11/07 07:17:29;;;;;;;8.27;3.40;;;10.20;99.90;;;;;;4853198;29;20207;-72
2023/11/07 07:19:58;;;;;;;4.30;3.72;;;10.20;99.90;;;;;;4858603;29;20222;-72
2023/11/07 07:22:27;;;;;;;8.57;3.78;;;10.30;99.90;;;;;;4856066;29;20214;-71
2023/11/07 07:24:54;;;;;;;4.40;3.42;;;10.30;99.90;;;;;;4857477;29;20730;-72
2023/11/07 07:27:21;;;;;;;4.32;3.55;;;10.30;99.90;;;;;;4857181;29;20207;-71
2023/11/07 07:29:48;;;;;;;3.58;3.38;;;10.20;99.90;;;;;;4856847;29;20234;-71
2023/11/07 07:32:15;;;;;;;7.50;3.85;;;10.30;99.90;;;;;;4857541;29;20246;-70
2023/11/07 07:34:42;;;;;;;4.10;3.70;;;10.40;99.90;;;;;;4857130;29;20243;-71
2023/11/07 07:37:10;;;;;;;5.18;3.53;;;10.40;99.90;;;;;;4856618;29;20307;-70
2023/11/07 07:39:38;;;;;;;3.97;3.78;;;10.40;99.90;;;;;;4856652;29;20322;-70
2023/11/07 07:42:09;;;;;;;3.50;3.17;;;10.50;99.90;;;;;;4855334;29;20215;-70
2023/11/07 07:44:35;;;;;;;8.07;4.03;;;10.40;99.90;;;;;;4856541;29;20226;-71
2023/11/07 07:47:02;;;;;;;3.38;3.05;;;10.40;99.90;;;;;;4855988;29;20219;-70
2023/11/07 07:49:30;;;;;;;3.30;3.08;;;10.40;99.90;;;;;;4854907;29;20211;-71
2023/11/07 07:51:58;;;;;;;3.47;3.08;;;10.40;99.90;;;;;;4856532;29;20267;-71
2023/11/07 07:54:29;;;;;;;4.20;4.00;;;10.50;99.90;;;;;;4856382;29;20287;-73
2023/11/07 07:56:57;;;;;;;3.67;3.38;;;10.40;99.90;;;;;;4854563;29;20211;-71
2023/11/07 07:59:25;;;;;;;2.78;2.63;;;10.50;99.90;;;;;;4855985;29;20216;-71
2023/11/07 08:01:53;;;;;;;3.15;3.00;;;10.50;99.90;;;;;;4857237;29;20212;-69
2023/11/07 08:04:21;;;;;;;2.80;2.60;;;10.50;99.90;;;;;;4856520;29;20235;-69
2023/11/07 08:06:48;;;;;;;5.22;3.90;;;10.50;99.90;;;;;;4852468;29;20577;-69
2023/11/07 08:09:18;;;;;;;4.10;3.80;;;10.50;99.90;;;;;;4855837;29;20337;-70
2023/11/07 08:11:47;;;;;;;4.45;4.05;;;10.60;99.90;;;;;;4855500;29;20299;-70
2023/11/07 08:14:14;;;;;;;2.83;2.70;;;10.60;99.90;;;;;;4854564;29;20255;-70
2023/11/07 08:16:41;;;;;;;3.80;3.50;;;10.60;99.90;;;;;;4852930;29;20219;-70
2023/11/07 08:19:09;;;;;;;2.83;2.67;;;10.60;99.90;;;;;;4857004;29;20226;-70
2023/11/07 08:21:36;;;;;;;3.45;3.25;;;10.60;99.90;;;;;;4853383;29;20294;-70
2023/11/07 08:24:03;;;;;;;3.80;3.05;;;10.70;99.90;;;;;;4854795;29;20243;-70
2023/11/07 08:26:30;;;;;;;3.70;3.10;;;10.70;99.90;;;;;;4856097;29;20215;-70
2023/11/07 08:29:00;;;;;;;2.47;2.38;;;10.70;99.90;;;;;;4851944;29;20216;-69
2023/11/07 08:31:27;;;;;;;3.15;2.60;;;10.80;99.90;;;;;;4856087;29;20228;-69
2023/11/07 08:33:53;;;;;;;3.65;3.35;;;10.80;99.90;;;;;;4853236;29;20235;-69
2023/11/07 08:36:20;;;;;;;4.05;3.22;;;10.80;99.90;;;;;;4854826;29;20212;-70
2023/11/07 08:38:47;;;;;;;3.15;3.05;;;10.90;99.90;;;;;;4851677;29;20235;-70
2023/11/07 08:41:14;;;;;;;3.50;3.30;;;11.00;99.90;;;;;;4855598;29;20557;-69
2023/11/07 08:43:40;;;;;;;3.45;3.15;;;11.00;99.90;;;;;;4856887;29;20484;-69
2023/11/07 08:46:08;;;;;;;4.17;3.20;;;11.20;99.90;;;;;;4855928;29;20215;-69
2023/11/07 08:48:35;;;;;;;3.20;3.00;;;11.20;99.90;;;;;;4853607;29;20476;-70
2023/11/07 08:51:02;;;;;;;3.40;2.77;;;11.30;99.90;;;;;;4853864;29;20581;-69
2023/11/07 08:53:29;;;;;;;4.03;3.23;;;11.30;99.90;;;;;;4855982;29;20480;-70
2023/11/07 08:55:56;;;;;;;5.23;3.43;;;11.30;99.90;;;;;;4853640;29;20499;-70
2023/11/07 08:58:23;;;;;;;3.10;2.90;;;11.30;99.90;;;;;;4849864;29;20545;-69
2023/11/07 09:00:51;;;;;;;2.70;2.60;;;11.30;99.90;;;;;;4846551;29;20560;-70
2023/11/07 09:03:19;;;;;;;4.23;3.10;;;11.30;99.90;;;;;;4846860;29;20488;-71
2023/11/07 09:05:46;;;;;;;4.07;2.73;;;11.40;99.90;;;;;;4850600;29;20501;-69
2023/11/07 09:08:13;;;;;;;3.60;3.30;;;11.40;99.90;;;;;;4852382;29;20497;-69
2023/11/07 09:10:39;;;;;;;4.30;3.30;;;11.40;99.90;;;;;;4855562;29;20492;-69
2023/11/07 09:13:07;;;;;;;3.17;3.07;;;11.50;99.90;;;;;;4856806;29;20477;-69
2023/11/07 09:15:36;;;;;;;2.70;2.60;;;11.60;99.90;;;;;;4854198;29;20516;-68
2023/11/07 09:18:02;;;;;;;3.00;2.80;;;11.60;99.90;;;;;;4854878;29;20482;-69
2023/11/07 09:20:30;;;;;;;3.70;2.57;;;11.60;99.90;;;;;;4855996;29;20473;-70
2023/11/07 09:22:57;;;;;;;2.20;2.10;;;11.60;99.90;;;;;;4855527;29;20473;-71
2023/11/07 09:25:24;;;;;;;2.37;2.20;;;11.60;99.90;;;;;;4853009;29;20504;-70
2023/11/07 09:27:51;;;;;;;2.53;2.53;;;11.60;99.90;;;;;;4857130;29;20544;-69
2023/11/07 09:30:19;;;;;;;7.97;2.73;;;11.60;99.90;;;;;;4858389;29;20494;-69
2023/11/07 09:32:48;;;;;;;2.97;2.77;;;11.60;99.90;;;;;;4857463;29;20503;-70
2023/11/07 09:35:15;;;;;;;6.90;3.10;;;11.70;99.90;;;;;;4855062;29;20552;-70
2023/11/07 09:37:43;;;;;;;4.17;3.53;;;11.70;99.90;;;;;;4856611;29;20469;-70
2023/11/07 09:40:17;;;;;;;3.37;3.27;;;11.80;99.90;;;;;;4855851;29;20469;-70
2023/11/07 09:42:45;;;;;;;2.90;2.70;;;11.90;99.90;;;;;;4856195;29;21031;-70
2023/11/07 09:45:15;;;;;;;2.70;2.60;;;11.90;99.90;;;;;;4856954;29;20488;-70
2023/11/07 09:47:46;;;;;;;2.63;2.43;;;11.90;99.90;;;;;;4859614;29;20476;-69
2023/11/07 09:50:13;;;;;;;2.70;2.60;;;12.00;99.90;;;;;;4859802;29;20465;-69
2023/11/07 09:52:42;;;;;;;4.20;2.83;;;12.00;99.90;;;;;;4859357;29;20499;-69
2023/11/07 09:55:14;;;;;;;2.23;2.13;;;12.00;99.90;;;;;;4859100;29;20492;-70
2023/11/07 09:57:43;;;;;;;3.10;2.90;;;12.00;99.90;;;;;;4859750;29;20468;-69
2023/11/07 10:00:11;;;;;;;3.83;3.00;;;12.00;99.90;;;;;;4858969;29;20470;-70
2023/11/07 10:02:40;;;;;;;2.50;2.30;;;12.10;99.90;;;;;;4855603;29;21225;-69
2023/11/07 10:05:09;;;;;;;3.70;2.10;;;12.10;99.90;;;;;;4858889;29;20498;-69
2023/11/07 10:07:36;;;;;;;8.27;2.33;;;12.10;99.90;;;;;;4859231;29;20464;-69
2023/11/07 10:10:05;;;;;;;1.83;1.83;;;12.10;99.90;;;;;;4858368;29;20505;-69
2023/11/07 10:12:34;;;;;;;3.70;2.70;;;12.20;99.90;;;;;;4856296;29;20584;-69
2023/11/07 10:15:14;;;;;;;4.33;2.10;;;12.20;99.90;;;;;;4858929;29;20587;-70
2023/11/07 10:17:43;;;;;;;1.97;1.90;;;12.20;99.90;;;;;;4858409;29;20477;-70
2023/11/07 10:20:11;;;;;;;2.27;1.70;;;12.20;99.90;;;;;;4857007;29;20476;-70
2023/11/07 10:22:44;;;;;;;1.80;1.80;;;12.20;99.90;;;;;;4856772;29;20575;-69
2023/11/07 10:25:27;;;;;;;2.00;1.90;;;12.20;99.90;;;;;;4857883;29;21027;-68
2023/11/07 10:27:55;;;;;;;1.90;1.90;;;12.20;99.90;;;;;;4858537;29;20589;-69
2023/11/07 10:30:22;;;;;;;1.53;1.53;;;12.30;99.90;;;;;;4857595;29;20481;-68
2023/11/07 10:32:55;;;;;;;2.87;2.17;;;12.20;99.90;;;;;;4858999;29;20580;-69
2023/11/07 10:35:24;;;;;;;2.23;2.13;;;12.20;99.90;;;;;;4857692;29;21133;-69
2023/11/07 10:37:51;;;;;;;2.40;2.20;;;12.20;99.90;;;;;;4855026;29;20470;-69
2023/11/07 10:40:18;;;;;;;3.80;2.00;;;12.20;99.90;;;;;;4856873;29;22269;-68
2023/11/07 10:42:49;;;;;;;1.83;1.83;;;12.10;99.90;;;;;;4857886;29;20461;-69
2023/11/07 10:45:20;;;;;;;2.30;2.20;;;12.10;99.90;;;;;;4858743;29;20489;-69
2023/11/07 10:47:48;;;;;;;1.77;1.77;;;12.10;99.90;;;;;;4858806;29;20473;-69
2023/11/07 10:50:17;;;;;;;2.07;2.07;;;12.10;99.90;;;;;;4858372;29;20481;-69
2023/11/07 10:52:47;;;;;;;2.67;2.00;;;12.00;99.90;;;;;;4857818;29;20863;-68
2023/11/07 10:55:14;;;;;;;2.40;1.97;;;12.00;99.90;;;;;;4856960;29;20548;-69
2023/11/07 10:57:50;;;;;;;1.73;1.60;;;12.00;99.90;;;;;;4855392;29;20473;-68
2023/11/07 11:00:20;;;;;;;2.13;2.13;;;12.10;99.90;;;;;;4855423;29;20508;-68
2023/11/07 11:02:52;;;;;;;4.30;1.90;;;12.10;99.90;;;;;;4853236;29;20552;-69
2023/11/07 11:05:23;;;;;;;3.03;1.60;;;12.10;99.90;;;;;;4855293;29;20557;-69
2023/11/07 11:07:51;;;;;;;2.33;2.13;;;12.00;99.90;;;;;;4857095;29;20548;-69
2023/11/07 11:10:21;;;;;;;2.03;2.03;;;12.00;99.90;;;;;;4857457;29;20541;-69
2023/11/07 11:12:51;;;;;;;2.10;2.00;;;12.00;99.90;;;;;;4857631;29;20493;-68
2023/11/07 11:15:20;;;;;;;4.40;2.20;;;12.00;99.90;;;;;;4874966;23;20568;-76
2023/11/07 11:17:52;;;;;;;1.97;1.87;;;12.10;99.90;;;;;;4861347;29;20532;-76
2023/11/07 11:20:25;;;;;;;6.90;2.50;;;12.10;99.90;;;;;;4860894;29;21012;-76
2023/11/07 11:22:59;;;;;;;3.00;2.90;;;12.20;99.90;;;;;;4854422;29;20465;-76
2023/11/07 11:25:39;;;;;;;2.30;2.17;;;12.20;99.90;;;;;;4860575;29;20493;-76
2023/11/07 11:28:06;;;;;;;1.60;1.60;;;12.20;99.90;;;;;;4858756;29;21318;-76
2023/11/07 11:30:38;;;;;;;2.33;2.20;;;12.30;99.90;;;;;;4854533;29;20919;-75
2023/11/07 11:33:06;;;;;;;2.83;2.50;;;12.30;99.90;;;;;;4856128;29;20494;-76
2023/11/07 11:35:35;;;;;;;1.80;1.80;;;12.30;99.90;;;;;;4857809;29;20480;-76
2023/11/07 11:38:16;;;;;;;2.67;1.90;;;12.20;99.90;;;;;;4855457;29;20477;-76
2023/11/07 11:40:54;;;;;;;4.43;2.33;;;12.20;99.90;;;;;;4858788;29;20469;-75
2023/11/07 11:43:23;;;;;;;3.07;2.97;;;12.20;99.90;;;;;;4858525;29;20466;-75
2023/11/07 11:45:52;;;;;;;2.30;2.20;;;12.20;99.90;;;;;;4856105;29;20486;-76
2023/11/07 11:48:21;;;;;;;2.57;1.60;;;12.20;99.90;;;;;;4853802;29;20486;-76
2023/11/07 11:51:09;;;;;;;1.90;1.90;;;12.10;99.90;;;;;;4855685;29;20525;-76
2023/11/07 11:53:36;;;;;;;2.20;2.20;;;12.00;99.90;;;;;;4853435;29;20497;-77
2023/11/07 11:56:13;;;;;;;2.40;2.30;;;12.00;99.90;;;;;;4853864;29;20489;-75
2023/11/07 11:58:40;;;;;;;2.30;2.10;;;12.10;99.90;;;;;;4853133;29;20472;-74
2023/11/07 12:01:10;;;;;;;2.27;2.17;;;12.10;99.90;;;;;;4849395;29;20545;-77
2023/11/07 12:03:42;;;;;;;1.53;1.30;;;12.20;99.90;;;;;;4857206;29;20523;-77
2023/11/07 12:06:10;;;;;;;1.70;1.60;;;12.20;99.90;;;;;;4856357;29;20572;-75
2023/11/07 12:08:41;;;;;;;1.67;1.63;;;12.30;99.90;;;;;;4850136;29;21004;-75
2023/11/07 12:11:09;;;;;;;2.23;2.03;;;12.30;99.90;;;;;;4860359;29;20525;-76
2023/11/07 12:13:36;;;;;;;1.70;1.60;;;12.30;99.90;;;;;;4849483;29;20497;-76
2023/11/07 12:16:16;;;;;;;1.70;1.70;;;12.30;99.90;;;;;;4857192;29;20493;-75
2023/11/07 12:18:45;;;;;;;1.87;1.77;;;12.30;99.90;;;;;;4852543;29;20473;-76
2023/11/07 12:21:21;;;;;;;1.10;1.07;;;12.30;99.90;;;;;;4856811;29;20887;-76
2023/11/07 12:23:48;;;;;;;1.70;1.70;;;12.30;99.90;;;;;;4854026;29;20461;-76
2023/11/07 12:26:14;;;;;;;1.57;1.57;;;12.40;99.90;;;;;;4855245;29;20515;-76
2023/11/07 12:28:45;;;;;;;3.70;1.70;;;12.40;99.90;;;;;;4856732;29;20465;-76
2023/11/07 12:31:11;;;;;;;2.50;2.40;;;12.40;99.90;;;;;;4853521;29;20468;-76
2023/11/07 12:33:44;;;;;;;2.83;2.00;;;12.40;99.90;;;;;;4871777;29;20491;-75
2023/11/07 12:36:13;;;;;;;1.90;1.90;;;12.40;99.90;;;;;;4873999;29;20502;-76
2023/11/07 12:38:41;;;;;;;1.60;1.60;;;12.40;99.90;;;;;;4878087;29;20531;-76
2023/11/07 12:41:10;;;;;;;2.30;2.10;;;12.40;99.90;;;;;;4874921;29;20472;-76
2023/11/07 12:43:40;;;;;;;3.13;1.70;;;12.40;99.90;;;;;;4873230;29;20505;-76
2023/11/07 12:46:09;;;;;;;2.23;1.83;;;12.40;99.90;;;;;;4870693;29;20486;-76
2023/11/07 12:48:37;;;;;;;1.43;1.43;;;12.40;99.90;;;;;;4874739;29;20470;-75
2023/11/07 12:51:08;;;;;;;1.53;1.53;;;12.50;99.90;;;;;;4870247;29;20475;-76
2023/11/07 12:53:46;;;;;;;1.83;1.73;;;12.50;99.90;;;;;;4853811;29;20534;-76
2023/11/07 12:56:13;;;;;;;2.20;2.10;;;12.50;99.90;;;;;;4858513;29;20541;-76
2023/11/07 12:58:40;;;;;;;1.60;1.60;;;12.50;99.90;;;;;;4855955;29;20471;-76
2023/11/07 13:01:07;;;;;;;1.73;1.73;;;12.50;99.90;;;;;;4858372;29;20465;-76
2023/11/07 13:03:37;;;;;;;1.40;1.40;;;12.60;99.90;;;;;;4853911;29;20475;-76
2023/11/07 13:06:09;;;;;;;1.70;1.70;;;12.60;99.90;;;;;;4852107;29;20491;-76
2023/11/07 13:08:37;;;;;;;2.13;1.43;;;12.60;99.90;;;;;;4847927;29;20480;-76
2023/11/07 13:11:09;;;;;;;1.77;1.77;;;12.70;99.90;;;;;;4858261;29;20473;-76
2023/11/07 13:13:36;;;;;;;1.60;1.60;;;12.80;99.90;;;;;;4855189;29;20573;-76
2023/11/07 13:16:04;;;;;;;1.20;1.20;;;12.80;99.90;;;;;;4856376;29;20508;-76
2023/11/07 13:18:30;;;;;;;2.23;1.97;;;12.80;99.90;;;;;;4853874;29;20480;-76
2023/11/07 13:20:57;;;;;;;1.77;1.63;;;12.70;99.90;;;;;;4860516;29;20475;-75
2023/11/07 13:23:25;;;;;;;2.00;1.80;;;12.60;99.90;;;;;;4858389;29;20463;-76
2023/11/07 13:25:52;;;;;;;1.40;1.40;;;12.50;99.90;;;;;;4858421;29;20490;-75
2023/11/07 13:28:20;;;;;;;2.53;1.57;;;12.40;99.90;;;;;;4852004;29;20571;-76
2023/11/07 13:30:48;;;;;;;3.20;1.77;;;12.40;99.90;;;;;;4853235;29;20533;-76
2023/11/07 13:33:15;;;;;;;1.97;1.87;;;12.40;99.90;;;;;;4856500;29;20893;-75
2023/11/07 13:35:47;;;;;;;2.00;2.00;;;12.40;99.90;;;;;;4862546;29;20496;-75
2023/11/07 13:38:14;;;;;;;1.93;1.93;;;12.40;99.90;;;;;;4862697;29;20474;-77
2023/11/07 13:40:43;;;;;;;1.50;1.50;;;12.40;99.90;;;;;;4854879;29;20472;-75
2023/11/07 13:43:10;;;;;;;1.70;1.70;;;12.40;99.90;;;;;;4852031;29;20938;-75
2023/11/07 13:46:49;;;;;;;1.40;1.40;;;12.60;99.90;;;;;;5084077;27;20568;-68
2023/11/07 13:49:15;;;;;;;1.40;1.40;;;12.60;99.90;;;;;;5052992;28;20491;-71
2023/11/07 13:51:44;;;;;;;1.33;1.23;;;12.60;99.90;;;;;;5054749;28;20509;-69
2023/11/07 13:54:11;;;;;;;1.27;1.27;;;12.60;99.90;;;;;;5064211;28;20732;-70
2023/11/07 13:56:38;;;;;;;1.37;1.30;;;12.50;99.90;;;;;;5059800;28;20459;-70
2023/11/07 13:59:06;;;;;;;1.20;1.20;;;12.60;99.90;;;;;;5051882;28;20571;-69
2023/11/07 14:01:35;;;;;;;1.50;1.50;;;12.50;99.90;;;;;;5051991;28;20499;-70
2023/11/07 14:04:04;;;;;;;1.90;1.80;;;12.50;99.90;;;;;;5046029;28;20473;-70
2023/11/07 14:06:32;;;;;;;1.60;1.60;;;12.50;99.90;;;;;;5054996;28;21192;-69
2023/11/07 14:08:59;;;;;;;1.30;1.30;;;12.40;99.90;;;;;;5064337;28;20488;-70
2023/11/07 14:11:25;;;;;;;6.30;5.87;;;12.30;99.90;;;;;;5056690;28;20477;-70
2023/11/07 14:13:52;;;;;;;1.93;1.90;;;12.20;99.90;;;;;;5064359;28;20472;-69
2023/11/07 14:16:19;;;;;;;2.47;2.20;;;12.20;99.90;;;;;;5054459;28;20951;-70
2023/11/07 14:18:48;;;;;;;2.97;2.07;;;12.10;99.90;;;;;;5044951;28;20476;-69
2023/11/07 14:21:16;;;;;;;3.10;2.90;;;12.10;99.90;;;;;;5051396;28;20992;-70
2023/11/07 14:23:45;;;;;;;2.10;2.03;;;12.10;99.90;;;;;;5063065;28;20468;-70
2023/11/07 14:26:11;;;;;;;1.93;1.83;;;12.10;99.90;;;;;;5055200;28;20506;-69
2023/11/07 14:28:38;;;;;;;2.07;2.07;;;12.00;99.90;;;;;;5061135;28;20682;-70
2023/11/07 14:31:08;;;;;;;1.80;1.70;;;12.00;99.90;;;;;;5055117;28;20462;-70
2023/11/07 14:33:35;;;;;;;1.80;1.70;;;11.90;99.90;;;;;;5041897;28;20574;-69
2023/11/07 14:36:03;;;;;;;1.77;1.70;;;11.90;99.90;;;;;;5059324;28;20526;-70
2023/11/07 14:38:34;;;;;;;1.23;1.23;;;11.90;99.90;;;;;;5062704;28;20505;-70
2023/11/07 14:41:01;;;;;;;1.70;1.70;;;11.80;99.90;;;;;;5061250;28;20567;-69
2023/11/07 14:43:28;;;;;;;1.90;1.80;;;11.80;99.90;;;;;;5059519;28;20551;-69
2023/11/07 14:45:56;;;;;;;1.73;1.63;;;11.80;99.90;;;;;;5053587;28;20487;-70
2023/11/07 14:48:23;;;;;;;1.67;1.67;;;11.70;99.90;;;;;;5062703;28;20464;-70
2023/11/07 14:50:53;;;;;;;1.77;1.77;;;11.70;99.90;;;;;;5056862;28;20487;-70
2023/11/07 14:53:22;;;;;;;3.07;2.43;;;11.60;99.90;;;;;;5057119;28;20955;-70
2023/11/07 14:55:50;;;;;;;2.03;2.03;;;11.60;99.90;;;;;;5054276;28;20450;-70
2023/11/07 14:58:19;;;;;;;1.97;1.97;;;11.60;99.90;;;;;;5038909;28;20499;-69
2023/11/07 15:00:49;;;;;;;1.80;1.77;;;11.70;99.90;;;;;;5034007;28;20685;-69
2023/11/07 15:03:17;;;;;;;2.93;1.67;;;11.60;99.90;;;;;;5040556;28;20886;-70
2023/11/07 15:05:44;;;;;;;2.10;2.00;;;11.70;99.90;;;;;;5032594;28;20510;-68
2023/11/07 15:08:11;;;;;;;2.37;2.27;;;11.70;99.90;;;;;;5025560;28;20863;-69
2023/11/07 15:10:38;;;;;;;2.23;2.23;;;11.70;99.90;;;;;;5030642;28;20995;-70
2023/11/07 15:13:07;;;;;;;1.73;1.73;;;11.60;99.90;;;;;;5044498;28;20465;-70
2023/11/07 15:15:34;;;;;;;2.33;2.23;;;11.70;99.90;;;;;;5034692;28;20472;-70
2023/11/07 15:18:03;;;;;;;2.33;2.17;;;11.60;99.90;;;;;;5042790;28;20468;-79
2023/11/07 15:20:31;;;;;;;2.23;2.13;;;11.50;99.90;;;;;;5039668;28;20965;-77
2023/11/07 15:23:00;;;;;;;2.53;2.43;;;11.50;99.90;;;;;;5039272;28;20544;-70
2023/11/07 15:25:30;;;;;;;2.40;2.30;;;11.50;99.90;;;;;;5043239;28;20896;-70
2023/11/07 15:27:58;;;;;;;2.10;2.10;;;11.40;99.90;;;;;;5050572;28;20460;-71
2023/11/07 15:30:28;;;;;;;3.27;3.03;;;11.30;99.90;;;;;;5040721;28;20491;-70
2023/11/07 15:32:56;;;;;;;3.20;2.60;;;11.20;99.90;;;;;;5033781;28;20515;-71
2023/11/07 15:35:24;;;;;;;2.67;2.47;;;11.20;99.90;;;;;;5025399;28;20461;-71
2023/11/07 15:37:51;;;;;;;3.17;3.03;;;11.10;99.90;;;;;;5024618;28;20206;-71
2023/11/07 15:40:18;;;;;;;3.08;2.78;;;11.10;99.90;;;;;;5022727;28;20230;-70
2023/11/07 15:42:45;;;;;;;2.40;2.30;;;11.00;99.90;;;;;;5025120;28;20206;-71
2023/11/07 15:45:13;;;;;;;2.70;2.65;;;10.90;99.90;;;;;;5024027;28;20248;-71
2023/11/07 15:47:43;;;;;;;3.60;3.40;;;10.90;99.90;;;;;;5027830;28;20202;-71
2023/11/07 15:50:14;;;;;;;2.53;2.53;;;10.80;99.90;;;;;;5040381;28;20696;-70
2023/11/07 15:52:41;;;;;;;3.60;3.30;;;10.70;99.90;;;;;;5023812;28;20838;-70
2023/11/07 15:55:10;;;;;;;3.25;3.15;;;10.70;99.90;;;;;;5023206;28;20206;-70
2023/11/07 15:57:38;;;;;;;2.80;2.70;;;10.60;99.90;;;;;;5024984;28;20211;-70
2023/11/07 16:00:10;;;;;;;2.42;2.33;;;10.50;99.90;;;;;;5023969;28;20599;-71
2023/11/07 16:02:37;;;;;;;3.45;3.15;;;10.50;99.90;;;;;;5022977;28;20275;-70
2023/11/07 16:05:06;;;;;;;2.95;2.85;;;10.40;99.90;;;;;;5023466;28;20207;-70
2023/11/07 16:07:34;;;;;;;3.28;3.03;;;10.40;99.90;;;;;;5035407;28;20188;-70
2023/11/07 16:10:01;;;;;;;3.30;3.10;;;10.30;99.90;;;;;;5035301;28;20230;-70
2023/11/07 16:12:27;;;;;;;4.63;4.22;;;10.30;99.90;;;;;;5041551;28;20658;-70
2023/11/07 16:14:54;;;;;;;3.60;3.40;;;10.30;99.90;;;;;;5033743;28;20214;-72
2023/11/07 16:17:21;;;;;;;4.72;3.25;;;10.30;99.90;;;;;;5028990;28;20230;-69
2023/11/07 16:19:48;;;;;;;2.80;2.80;;;10.30;99.90;;;;;;5032016;28;20225;-70
2023/11/07 16:22:17;;;;;;;2.78;2.78;;;10.30;99.90;;;;;;5035649;28;20663;-70
2023/11/07 16:24:43;;;;;;;3.38;3.28;;;10.30;99.90;;;;;;5032410;28;20205;-70
2023/11/07 16:27:10;;;;;;;3.25;3.10;;;10.30;99.90;;;;;;5030024;28;20616;-70
2023/11/07 16:29:37;;;;;;;3.10;2.88;;;10.20;99.90;;;;;;5031582;28;20234;-70
2023/11/07 16:32:04;;;;;;;3.28;3.08;;;10.10;99.90;;;;;;5024597;28;20213;-70
2023/11/07 16:34:31;;;;;;;2.70;2.50;;;10.10;99.90;;;;;;5018263;28;20232;-70
2023/11/07 16:36:58;;;;;;;4.10;3.90;;;10.00;99.90;;;;;;5015930;28;20210;-70
2023/11/07 16:39:27;;;;;;;4.53;3.35;;;10.00;99.90;;;;;;5015265;28;20574;-69
2023/11/07 16:41:54;;;;;;;5.20;3.80;;;10.00;99.90;;;;;;5011898;28;20282;-70
2023/11/07 16:44:21;;;;;;;2.80;2.55;;;9.90;99.90;;;;;;5018825;28;20205;-69
2023/11/07 16:46:49;;;;;;;3.22;3.13;;;9.90;99.90;;;;;;5021264;28;20233;-69
2023/11/07 16:49:17;;;;;;;3.25;2.95;;;9.80;99.90;;;;;;5018325;28;20229;-70
2023/11/07 16:51:43;;;;;;;3.45;3.25;;;9.80;99.90;;;;;;5021209;28;20254;-69
2023/11/07 16:54:10;;;;;;;4.25;3.58;;;9.80;99.90;;;;;;5017548;28;20844;-70
2023/11/07 16:56:38;;;;;;;4.05;3.75;;;9.70;99.90;;;;;;5016577;28;20216;-69
2023/11/07 16:59:05;;;;;;;2.85;2.75;;;9.70;99.90;;;;;;5020448;28;22837;-70
2023/11/07 17:01:32;;;;;;;3.15;3.00;;;9.60;99.90;;;;;;5013868;28;20212;-70
2023/11/07 17:04:00;;;;;;;3.53;3.30;;;9.60;99.90;;;;;;5018599;28;20205;-69
2023/11/07 17:06:27;;;;;;;3.33;3.22;;;9.60;99.90;;;;;;5024893;28;20224;-70
2023/11/07 17:08:54;;;;;;;4.50;4.10;;;9.50;99.90;;;;;;5021243;28;20209;-70
2023/11/07 17:11:22;;;;;;;4.22;3.95;;;9.50;99.90;;;;;;5021230;28;20200;-70
2023/11/07 17:13:50;;;;;;;4.75;3.67;;;9.40;99.90;;;;;;5019606;28;20238;-70
2023/11/07 17:16:17;;;;;;;4.00;3.60;;;9.40;99.90;;;;;;5044483;28;20503;-70
2023/11/07 17:18:44;;;;;;;3.75;3.60;;;9.40;99.90;;;;;;5049959;28;20222;-70
2023/11/07 17:21:12;;;;;;;4.43;3.95;;;9.30;99.90;;;;;;5033652;28;20387;-69
2023/11/07 17:23:40;;;;;;;4.78;4.38;;;9.30;99.90;;;;;;5030585;28;20742;-69
2023/11/07 17:26:06;;;;;;;3.60;3.40;;;9.30;99.90;;;;;;5042500;28;20217;-69
2023/11/07 17:28:33;;;;;;;4.20;4.00;;;9.30;99.90;;;;;;5032146;28;20226;-70
2023/11/07 17:31:02;;;;;;;4.18;3.88;;;9.30;99.90;;;;;;5043121;28;20231;-69
2023/11/07 17:33:29;;;;;;;2.95;2.72;;;9.30;99.90;;;;;;5031778;28;20592;-69
2023/11/07 17:35:56;;;;;;;4.13;3.83;;;9.30;99.90;;;;;;5051208;28;20208;-70
2023/11/07 17:38:23;;;;;;;4.10;3.90;;;9.30;99.90;;;;;;5050749;28;20213;-71
2023/11/07 17:40:51;;;;;;;3.17;3.08;;;9.30;99.90;;;;;;5033574;28;20319;-70
2023/11/07 17:43:18;;;;;;;3.10;3.00;;;9.30;99.90;;;;;;5030117;28;20202;-69
2023/11/07 17:45:45;;;;;;;2.80;2.60;;;9.30;99.90;;;;;;5034608;28;20380;-69
2023/11/07 17:48:13;;;;;;;3.08;2.83;;;9.30;99.90;;;;;;5026664;28;20198;-70
2023/11/07 17:50:40;;;;;;;3.35;3.13;;;9.30;99.90;;;;;;5020593;28;20339;-70
2023/11/07 17:53:10;;;;;;;3.40;3.20;;;9.40;99.90;;;;;;5018392;28;20216;-69
2023/11/07 17:55:38;;;;;;;2.97;2.83;;;9.40;99.90;;;;;;5018590;28;20303;-69